sensor_id;sensor_type;location;lat;lon;timestamp;pressure;altitude;pressure_sealevel;temperature;humidity
75594;BME280;64176;49.156;7.810;2023-04-03T00:01:17;100085.50;;;3.55;67.68
75594;BME280;64176;49.156;7.810;2023-04-03T00:04:04;100069.19;;;3.52;67.19
75594;BME280;64176;49.156;7.810;2023-04-03T00:06:51;100076.09;;;3.54;67.82
75594;BME280;64176;49.156;7.810;2023-04-03T00:09:40;100063.69;;;3.44;67.13
75594;BME280;64176;49.156;7.810;2023-04-03T00:12:28;100084.59;;;3.53;67.52
75594;BME280;64176;49.156;7.810;2023-04-03T00:15:12;100067.75;;;3.58;68.21
75594;BME280;64176;49.156;7.810;2023-04-03T00:17:59;100077.50;;;3.48;68.70
75594;BME280;64176;49.156;7.810;2023-04-03T00:20:43;100062.97;;;3.47;68.85
75594;BME280;64176;49.156;7.810;2023-04-03T00:23:30;100073.84;;;3.43;68.58
75594;BME280;64176;49.156;7.810;2023-04-03T00:26:14;100068.91;;;3.28;69.09
75594;BME280;64176;49.156;7.810;2023-04-03T00:29:01;100074.38;;;3.18;68.75
75594;BME280;64176;49.156;7.810;2023-04-03T00:31:45;100062.50;;;3.18;70.02
75594;BME280;64176;49.156;7.810;2023-04-03T00:34:31;100067.78;;;3.23;70.50
75594;BME280;64176;49.156;7.810;2023-04-03T00:37:18;100071.06;;;3.03;70.88
75594;BME280;64176;49.156;7.810;2023-04-03T00:40:06;100077.69;;;2.99;70.91
75594;BME280;64176;49.156;7.810;2023-04-03T00:42:54;100070.34;;;3.05;70.83
75594;BME280;64176;49.156;7.810;2023-04-03T00:45:41;100079.06;;;3.09;71.07
75594;BME280;64176;49.156;7.810;2023-04-03T00:48:44;100081.88;;;2.97;71.46
75594;BME280;64176;49.156;7.810;2023-04-03T00:51:29;100070.19;;;3.02;72.11
75594;BME280;64176;49.156;7.810;2023-04-03T00:54:16;100065.72;;;2.80;73.13
75594;BME280;64176;49.156;7.810;2023-04-03T00:57:03;100056.56;;;2.50;74.57
75594;BME280;64176;49.156;7.810;2023-04-03T00:59:53;100072.13;;;2.38;75.77
75594;BME280;64176;49.156;7.810;2023-04-03T01:02:41;100075.03;;;2.62;76.01
75594;BME280;64176;49.156;7.810;2023-04-03T01:05:27;100069.66;;;2.40;76.94
75594;BME280;64176;49.156;7.810;2023-04-03T01:08:11;100083.03;;;2.36;77.42
75594;BME280;64176;49.156;7.810;2023-04-03T01:10:58;100070.16;;;2.00;79.37
75594;BME280;64176;49.156;7.810;2023-04-03T01:13:43;100072.88;;;2.03;79.84
75594;BME280;64176;49.156;7.810;2023-04-03T01:16:30;100067.13;;;2.07;78.13
75594;BME280;64176;49.156;7.810;2023-04-03T01:19:17;100072.00;;;2.03;79.24
75594;BME280;64176;49.156;7.810;2023-04-03T01:22:31;100066.34;;;1.92;80.25
75594;BME280;64176;49.156;7.810;2023-04-03T01:25:26;100070.25;;;1.86;80.39
75594;BME280;64176;49.156;7.810;2023-04-03T01:28:23;100070.38;;;1.72;81.16
75594;BME280;64176;49.156;7.810;2023-04-03T01:34:07;100080.47;;;1.55;82.07
75594;BME280;64176;49.156;7.810;2023-04-03T01:36:51;100076.47;;;1.60;82.93
75594;BME280;64176;49.156;7.810;2023-04-03T01:39:39;100080.16;;;1.65;81.14
75594;BME280;64176;49.156;7.810;2023-04-03T01:42:29;100071.88;;;1.53;83.19
75594;BME280;64176;49.156;7.810;2023-04-03T01:45:14;100074.34;;;1.36;83.55
75594;BME280;64176;49.156;7.810;2023-04-03T01:48:03;100070.22;;;1.38;83.83
75594;BME280;64176;49.156;7.810;2023-04-03T01:50:48;100044.72;;;1.22;83.93
75594;BME280;64176;49.156;7.810;2023-04-03T01:53:39;100077.97;;;1.40;84.16
75594;BME280;64176;49.156;7.810;2023-04-03T01:56:26;100068.75;;;1.42;83.95
75594;BME280;64176;49.156;7.810;2023-04-03T01:59:13;100075.44;;;1.25;84.42
75594;BME280;64176;49.156;7.810;2023-04-03T02:01:57;100072.13;;;1.12;85.28
75594;BME280;64176;49.156;7.810;2023-04-03T02:04:41;100071.00;;;0.92;85.58
75594;BME280;64176;49.156;7.810;2023-04-03T02:07:25;100073.72;;;1.09;84.81
75594;BME280;64176;49.156;7.810;2023-04-03T02:10:09;100070.91;;;1.05;85.18
75594;BME280;64176;49.156;7.810;2023-04-03T02:12:55;100069.53;;;1.10;84.52
75594;BME280;64176;49.156;7.810;2023-04-03T02:15:46;100068.97;;;1.01;84.52
75594;BME280;64176;49.156;7.810;2023-04-03T02:18:34;100039.03;;;0.66;85.01
75594;BME280;64176;49.156;7.810;2023-04-03T02:21:23;100072.06;;;0.81;84.47
75594;BME280;64176;49.156;7.810;2023-04-03T02:24:10;100070.25;;;0.63;85.00
75594;BME280;64176;49.156;7.810;2023-04-03T02:26:54;100066.38;;;0.41;86.22
75594;BME280;64176;49.156;7.810;2023-04-03T02:29:38;100081.38;;;0.51;85.75
75594;BME280;64176;49.156;7.810;2023-04-03T02:32:22;100067.94;;;0.68;85.12
75594;BME280;64176;49.156;7.810;2023-04-03T02:35:07;100073.66;;;0.64;85.01
75594;BME280;64176;49.156;7.810;2023-04-03T02:37:54;100070.66;;;0.56;85.65
75594;BME280;64176;49.156;7.810;2023-04-03T02:40:40;100074.28;;;0.60;84.85
75594;BME280;64176;49.156;7.810;2023-04-03T02:43:24;100071.38;;;0.68;85.05
75594;BME280;64176;49.156;7.810;2023-04-03T02:46:08;100073.81;;;0.82;85.02
75594;BME280;64176;49.156;7.810;2023-04-03T02:48:52;100069.34;;;0.78;84.96
75594;BME280;64176;49.156;7.810;2023-04-03T02:51:39;100068.28;;;0.30;85.89
75594;BME280;64176;49.156;7.810;2023-04-03T02:54:23;100074.34;;;0.47;86.46
75594;BME280;64176;49.156;7.810;2023-04-03T02:57:12;100070.03;;;0.46;85.57
75594;BME280;64176;49.156;7.810;2023-04-03T02:59:56;100064.72;;;0.41;85.76
75594;BME280;64176;49.156;7.810;2023-04-03T03:02:45;100075.31;;;0.49;85.17
75594;BME280;64176;49.156;7.810;2023-04-03T03:05:29;100073.06;;;0.53;84.71
75594;BME280;64176;49.156;7.810;2023-04-03T03:08:13;100079.09;;;0.13;86.25
75594;BME280;64176;49.156;7.810;2023-04-03T03:10:58;100054.66;;;0.15;86.79
75594;BME280;64176;49.156;7.810;2023-04-03T03:13:42;100077.81;;;0.34;85.59
75594;BME280;64176;49.156;7.810;2023-04-03T03:16:28;100067.81;;;0.08;86.48
75594;BME280;64176;49.156;7.810;2023-04-03T03:19:14;100073.63;;;-0.08;86.72
75594;BME280;64176;49.156;7.810;2023-04-03T03:21:58;100056.81;;;-0.06;87.60
75594;BME280;64176;49.156;7.810;2023-04-03T03:24:45;100065.34;;;0.09;86.60
75594;BME280;64176;49.156;7.810;2023-04-03T03:27:32;100070.63;;;0.27;86.27
75594;BME280;64176;49.156;7.810;2023-04-03T03:30:16;100067.03;;;0.23;85.99
75594;BME280;64176;49.156;7.810;2023-04-03T03:33:03;100072.91;;;0.22;86.32
75594;BME280;64176;49.156;7.810;2023-04-03T03:35:53;100076.31;;;0.23;86.30
75594;BME280;64176;49.156;7.810;2023-04-03T03:38:37;100058.88;;;0.14;85.73
75594;BME280;64176;49.156;7.810;2023-04-03T03:41:24;100073.19;;;0.27;85.84
75594;BME280;64176;49.156;7.810;2023-04-03T03:44:10;100072.69;;;0.05;85.95
75594;BME280;64176;49.156;7.810;2023-04-03T03:46:55;100060.19;;;0.08;86.19
75594;BME280;64176;49.156;7.810;2023-04-03T03:49:45;100057.34;;;0.03;86.17
75594;BME280;64176;49.156;7.810;2023-04-03T03:52:35;100074.22;;;0.16;86.33
75594;BME280;64176;49.156;7.810;2023-04-03T03:55:21;100073.47;;;0.04;85.94
75594;BME280;64176;49.156;7.810;2023-04-03T03:58:12;100073.47;;;0.04;86.48
75594;BME280;64176;49.156;7.810;2023-04-03T04:00:56;100072.34;;;-0.02;85.84
75594;BME280;64176;49.156;7.810;2023-04-03T04:03:41;100072.56;;;-0.12;86.55
75594;BME280;64176;49.156;7.810;2023-04-03T04:06:27;100064.63;;;-0.03;85.98
75594;BME280;64176;49.156;7.810;2023-04-03T04:09:15;100073.63;;;-0.08;85.83
75594;BME280;64176;49.156;7.810;2023-04-03T04:11:59;100062.56;;;-0.09;86.08
75594;BME280;64176;49.156;7.810;2023-04-03T04:14:50;100064.47;;;0.09;84.79
75594;BME280;64176;49.156;7.810;2023-04-03T04:17:34;100078.41;;;0.15;85.81
75594;BME280;64176;49.156;7.810;2023-04-03T04:20:25;100067.03;;;0.09;86.39
75594;BME280;64176;49.156;7.810;2023-04-03T04:23:13;100073.47;;;0.46;82.79
75594;BME280;64176;49.156;7.810;2023-04-03T04:25:57;100082.59;;;0.43;83.27
75594;BME280;64176;49.156;7.810;2023-04-03T04:28:41;100065.22;;;0.35;83.80
75594;BME280;64176;49.156;7.810;2023-04-03T04:31:28;100071.88;;;0.92;80.91
75594;BME280;64176;49.156;7.810;2023-04-03T04:34:14;100077.94;;;0.80;81.14
75594;BME280;64176;49.156;7.810;2023-04-03T04:36:59;100077.69;;;0.75;80.64
75594;BME280;64176;49.156;7.810;2023-04-03T04:39:45;100067.31;;;1.01;78.65
75594;BME280;64176;49.156;7.810;2023-04-03T04:42:30;100065.09;;;1.53;76.44
75594;BME280;64176;49.156;7.810;2023-04-03T04:45:14;100069.91;;;1.32;77.26
75594;BME280;64176;49.156;7.810;2023-04-03T04:48:01;100065.41;;;1.43;76.61
75594;BME280;64176;49.156;7.810;2023-04-03T04:50:45;100076.72;;;1.33;76.78
75594;BME280;64176;49.156;7.810;2023-04-03T04:53:29;100074.19;;;1.33;77.98
75594;BME280;64176;49.156;7.810;2023-04-03T04:56:13;100085.91;;;1.46;75.01
75594;BME280;64176;49.156;7.810;2023-04-03T04:58:59;100079.31;;;1.97;71.68
75594;BME280;64176;49.156;7.810;2023-04-03T05:01:44;100082.50;;;1.93;72.38
75594;BME280;64176;49.156;7.810;2023-04-03T05:04:33;100079.41;;;1.51;75.09
75594;BME280;64176;49.156;7.810;2023-04-03T05:07:23;100079.94;;;1.76;72.42
75594;BME280;64176;49.156;7.810;2023-04-03T05:10:11;100085.59;;;1.71;73.93
75594;BME280;64176;49.156;7.810;2023-04-03T05:12:56;100090.59;;;1.69;72.89
75594;BME280;64176;49.156;7.810;2023-04-03T05:15:40;100086.59;;;1.58;74.19
75594;BME280;64176;49.156;7.810;2023-04-03T05:18:25;100091.81;;;1.76;72.33
75594;BME280;64176;49.156;7.810;2023-04-03T05:21:14;100073.97;;;1.76;71.11
75594;BME280;64176;49.156;7.810;2023-04-03T05:23:59;100091.34;;;1.83;70.87
75594;BME280;64176;49.156;7.810;2023-04-03T05:26:49;100078.09;;;1.90;70.21
75594;BME280;64176;49.156;7.810;2023-04-03T05:29:33;100086.72;;;1.92;69.15
75594;BME280;64176;49.156;7.810;2023-04-03T05:32:19;100083.13;;;1.89;70.71
75594;BME280;64176;49.156;7.810;2023-04-03T05:35:08;100080.00;;;1.78;71.41
75594;BME280;64176;49.156;7.810;2023-04-03T05:37:59;100092.53;;;1.90;71.45
75594;BME280;64176;49.156;7.810;2023-04-03T05:40:45;100088.00;;;2.00;70.03
75594;BME280;64176;49.156;7.810;2023-04-03T05:43:30;100083.69;;;2.15;68.40
75594;BME280;64176;49.156;7.810;2023-04-03T05:46:17;100089.50;;;2.13;68.53
75594;BME280;64176;49.156;7.810;2023-04-03T05:49:07;100097.63;;;2.22;68.73
75594;BME280;64176;49.156;7.810;2023-04-03T05:51:53;100095.72;;;2.34;68.11
75594;BME280;64176;49.156;7.810;2023-04-03T05:54:42;100100.19;;;2.38;67.73
75594;BME280;64176;49.156;7.810;2023-04-03T05:57:35;100105.91;;;2.34;68.24
75594;BME280;64176;49.156;7.810;2023-04-03T06:00:19;100106.34;;;2.42;67.18
75594;BME280;64176;49.156;7.810;2023-04-03T06:03:14;100106.22;;;2.56;66.97
75594;BME280;64176;49.156;7.810;2023-04-03T06:06:02;100106.63;;;2.48;67.32
75594;BME280;64176;49.156;7.810;2023-04-03T06:08:47;100109.22;;;2.66;66.75
75594;BME280;64176;49.156;7.810;2023-04-03T06:11:36;100115.63;;;2.74;65.54
75594;BME280;64176;49.156;7.810;2023-04-03T06:14:23;100108.16;;;2.78;64.87
75594;BME280;64176;49.156;7.810;2023-04-03T06:17:07;100113.59;;;2.84;64.81
75594;BME280;64176;49.156;7.810;2023-04-03T06:19:53;100125.22;;;2.96;65.30
75594;BME280;64176;49.156;7.810;2023-04-03T06:22:37;100122.94;;;3.02;64.47
75594;BME280;64176;49.156;7.810;2023-04-03T06:25:21;100125.56;;;3.03;64.11
75594;BME280;64176;49.156;7.810;2023-04-03T06:28:05;100123.66;;;2.99;64.64
75594;BME280;64176;49.156;7.810;2023-04-03T06:30:51;100123.94;;;2.87;64.49
75594;BME280;64176;49.156;7.810;2023-04-03T06:33:38;100134.22;;;2.89;65.00
75594;BME280;64176;49.156;7.810;2023-04-03T06:36:22;100119.50;;;2.83;64.43
75594;BME280;64176;49.156;7.810;2023-04-03T06:39:09;100135.53;;;2.99;64.22
75594;BME280;64176;49.156;7.810;2023-04-03T06:41:57;100132.25;;;2.83;65.28
75594;BME280;64176;49.156;7.810;2023-04-03T06:44:54;100133.56;;;3.09;64.42
75594;BME280;64176;49.156;7.810;2023-04-03T06:47:39;100132.53;;;3.23;64.55
75594;BME280;64176;49.156;7.810;2023-04-03T06:50:23;100131.38;;;3.35;64.72
75594;BME280;64176;49.156;7.810;2023-04-03T06:53:07;100120.84;;;3.46;64.75
75594;BME280;64176;49.156;7.810;2023-04-03T06:55:52;100116.41;;;3.42;63.90
75594;BME280;64176;49.156;7.810;2023-04-03T06:58:39;100108.69;;;3.78;64.46
75594;BME280;64176;49.156;7.810;2023-04-03T07:01:28;100138.56;;;4.16;64.18
75594;BME280;64176;49.156;7.810;2023-04-03T07:04:12;100144.94;;;3.69;65.36
75594;BME280;64176;49.156;7.810;2023-04-03T07:06:59;100143.91;;;3.83;65.75
75594;BME280;64176;49.156;7.810;2023-04-03T07:09:44;100144.22;;;4.09;65.54
75594;BME280;64176;49.156;7.810;2023-04-03T07:12:30;100147.75;;;3.93;65.56
75594;BME280;64176;49.156;7.810;2023-04-03T07:15:14;100143.44;;;4.29;65.82
75594;BME280;64176;49.156;7.810;2023-04-03T07:18:01;100142.31;;;4.42;65.38
75594;BME280;64176;49.156;7.810;2023-04-03T07:20:45;100149.47;;;4.69;66.20
75594;BME280;64176;49.156;7.810;2023-04-03T07:23:29;100141.09;;;5.13;63.09
75594;BME280;64176;49.156;7.810;2023-04-03T07:26:13;100145.84;;;4.45;64.24
75594;BME280;64176;49.156;7.810;2023-04-03T07:28:57;100142.19;;;5.19;63.86
75594;BME280;64176;49.156;7.810;2023-04-03T07:31:41;100143.34;;;5.47;63.21
75594;BME280;64176;49.156;7.810;2023-04-03T07:34:26;100148.91;;;5.37;63.13
75594;BME280;64176;49.156;7.810;2023-04-03T07:37:10;100150.41;;;5.11;62.92
75594;BME280;64176;49.156;7.810;2023-04-03T07:39:57;100156.09;;;5.25;62.97
75594;BME280;64176;49.156;7.810;2023-04-03T07:42:45;100150.38;;;5.53;61.56
75594;BME280;64176;49.156;7.810;2023-04-03T07:45:29;100154.16;;;5.83;60.47
75594;BME280;64176;49.156;7.810;2023-04-03T07:48:13;100149.91;;;6.76;58.71
75594;BME280;64176;49.156;7.810;2023-04-03T07:51:00;100147.84;;;6.42;58.56
75594;BME280;64176;49.156;7.810;2023-04-03T07:53:50;100155.84;;;6.99;56.70
75594;BME280;64176;49.156;7.810;2023-04-03T07:56:36;100145.84;;;7.07;56.02
75594;BME280;64176;49.156;7.810;2023-04-03T07:59:23;100149.06;;;7.26;54.84
75594;BME280;64176;49.156;7.810;2023-04-03T08:02:09;100149.22;;;7.86;53.84
75594;BME280;64176;49.156;7.810;2023-04-03T08:04:54;100151.63;;;8.09;53.23
75594;BME280;64176;49.156;7.810;2023-04-03T08:07:41;100154.06;;;7.76;54.14
75594;BME280;64176;49.156;7.810;2023-04-03T08:10:25;100151.25;;;6.90;56.24
75594;BME280;64176;49.156;7.810;2023-04-03T08:13:11;100159.88;;;6.21;56.46
75594;BME280;64176;49.156;7.810;2023-04-03T08:15:55;100147.16;;;5.79;58.35
75594;BME280;64176;49.156;7.810;2023-04-03T08:18:43;100152.59;;;6.32;57.97
75594;BME280;64176;49.156;7.810;2023-04-03T08:21:32;100151.72;;;6.55;57.26
75594;BME280;64176;49.156;7.810;2023-04-03T08:24:16;100152.31;;;6.02;56.57
75594;BME280;64176;49.156;7.810;2023-04-03T08:27:03;100154.34;;;6.33;58.00
75594;BME280;64176;49.156;7.810;2023-04-03T08:29:46;100154.06;;;6.25;57.81
75594;BME280;64176;49.156;7.810;2023-04-03T08:32:38;100137.66;;;6.21;56.41
75594;BME280;64176;49.156;7.810;2023-04-03T08:35:23;100164.56;;;6.09;58.13
75594;BME280;64176;49.156;7.810;2023-04-03T08:38:10;100143.56;;;5.97;57.89
75594;BME280;64176;49.156;7.810;2023-04-03T08:44:07;100165.19;;;6.26;58.37
75594;BME280;64176;49.156;7.810;2023-04-03T08:47:23;100162.38;;;6.66;58.64
75594;BME280;64176;49.156;7.810;2023-04-03T08:50:20;100154.81;;;6.00;57.14
75594;BME280;64176;49.156;7.810;2023-04-03T08:53:14;100171.22;;;6.04;59.27
75594;BME280;64176;49.156;7.810;2023-04-03T08:56:05;100171.13;;;5.80;58.01
75594;BME280;64176;49.156;7.810;2023-04-03T08:58:58;100165.84;;;5.77;57.72
75594;BME280;64176;49.156;7.810;2023-04-03T09:01:46;100179.91;;;5.86;57.82
75594;BME280;64176;49.156;7.810;2023-04-03T09:04:31;100165.63;;;5.71;57.37
75594;BME280;64176;49.156;7.810;2023-04-03T09:07:25;100173.81;;;5.83;57.39
75594;BME280;64176;49.156;7.810;2023-04-03T09:10:15;100184.78;;;5.58;58.15
75594;BME280;64176;49.156;7.810;2023-04-03T09:16:25;100178.91;;;5.61;57.63
75594;BME280;64176;49.156;7.810;2023-04-03T09:22:13;100173.69;;;5.80;57.71
75594;BME280;64176;49.156;7.810;2023-04-03T09:25:15;100171.03;;;5.99;57.19
75594;BME280;64176;49.156;7.810;2023-04-03T09:28:03;100170.81;;;5.72;56.13
75594;BME280;64176;49.156;7.810;2023-04-03T09:30:47;100162.31;;;5.73;57.68
75594;BME280;64176;49.156;7.810;2023-04-03T09:33:36;100156.66;;;5.60;57.46
75594;BME280;64176;49.156;7.810;2023-04-03T09:36:50;100167.53;;;5.97;57.48
75594;BME280;64176;49.156;7.810;2023-04-03T09:39:54;100158.34;;;5.81;57.07
75594;BME280;64176;49.156;7.810;2023-04-03T09:42:40;100146.38;;;5.60;56.64
75594;BME280;64176;49.156;7.810;2023-04-03T09:45:35;100166.09;;;5.61;56.24
75594;BME280;64176;49.156;7.810;2023-04-03T09:48:25;100162.31;;;5.73;55.04
75594;BME280;64176;49.156;7.810;2023-04-03T09:51:15;100164.44;;;5.83;55.10
75594;BME280;64176;49.156;7.810;2023-04-03T09:53:59;100164.00;;;5.73;55.22
75594;BME280;64176;49.156;7.810;2023-04-03T09:56:49;100166.94;;;5.82;53.53
75594;BME280;64176;49.156;7.810;2023-04-03T09:59:34;100163.94;;;5.92;53.68
75594;BME280;64176;49.156;7.810;2023-04-03T10:02:39;100169.75;;;6.10;52.75
75594;BME280;64176;49.156;7.810;2023-04-03T10:16:41;100159.44;;;6.55;50.89
75594;BME280;64176;49.156;7.810;2023-04-03T10:19:39;100167.50;;;6.18;49.77
75594;BME280;64176;49.156;7.810;2023-04-03T10:22:42;100169.00;;;6.13;49.55
75594;BME280;64176;49.156;7.810;2023-04-03T10:29:25;100155.09;;;6.08;50.82
75594;BME280;64176;49.156;7.810;2023-04-03T10:35:01;100119.91;;;7.01;49.24
75594;BME280;64176;49.156;7.810;2023-04-03T10:43:43;100147.13;;;7.73;49.18
75594;BME280;64176;49.156;7.810;2023-04-03T10:46:35;100141.63;;;7.62;47.66
75594;BME280;64176;49.156;7.810;2023-04-03T10:55:42;100132.69;;;7.50;46.50
75594;BME280;64176;49.156;7.810;2023-04-03T10:58:31;100148.13;;;7.24;47.42
75594;BME280;64176;49.156;7.810;2023-04-03T11:01:22;100149.06;;;7.01;47.65
75594;BME280;64176;49.156;7.810;2023-04-03T11:04:11;100146.63;;;6.80;46.66
75594;BME280;64176;49.156;7.810;2023-04-03T11:07:07;100143.50;;;7.14;47.13
75594;BME280;64176;49.156;7.810;2023-04-03T11:09:56;100150.69;;;6.99;47.85
75594;BME280;64176;49.156;7.810;2023-04-03T11:15:54;100150.88;;;7.04;48.48
75594;BME280;64176;49.156;7.810;2023-04-03T11:18:46;100140.00;;;7.12;48.44
75594;BME280;64176;49.156;7.810;2023-04-03T11:21:46;100131.09;;;7.55;47.50
75594;BME280;64176;49.156;7.810;2023-04-03T11:24:36;100137.84;;;7.24;48.03
75594;BME280;64176;49.156;7.810;2023-04-03T11:27:23;100140.41;;;7.24;48.19
75594;BME280;64176;49.156;7.810;2023-04-03T11:30:15;100121.41;;;6.94;47.40
75594;BME280;64176;49.156;7.810;2023-04-03T11:36:08;100120.97;;;7.32;47.88
75594;BME280;64176;49.156;7.810;2023-04-03T11:39:00;100128.09;;;7.14;48.01
75594;BME280;64176;49.156;7.810;2023-04-03T11:41:45;100131.34;;;6.85;46.62
75594;BME280;64176;49.156;7.810;2023-04-03T11:44:36;100117.16;;;6.94;47.31
75594;BME280;64176;49.156;7.810;2023-04-03T11:47:44;100126.50;;;7.18;47.13
75594;BME280;64176;49.156;7.810;2023-04-03T11:50:45;100112.91;;;7.22;47.79
75594;BME280;64176;49.156;7.810;2023-04-03T12:02:00;100123.88;;;6.91;47.39
75594;BME280;64176;49.156;7.810;2023-04-03T12:05:26;100102.84;;;7.03;47.97
75594;BME280;64176;49.156;7.810;2023-04-03T12:08:25;100104.59;;;7.04;47.77
75594;BME280;64176;49.156;7.810;2023-04-03T12:19:39;100113.38;;;7.64;48.57
75594;BME280;64176;49.156;7.810;2023-04-03T12:22:27;100097.25;;;7.41;48.09
75594;BME280;64176;49.156;7.810;2023-04-03T12:25:50;100108.56;;;7.46;47.26
75594;BME280;64176;49.156;7.810;2023-04-03T12:28:39;100104.47;;;7.26;47.39
75594;BME280;64176;49.156;7.810;2023-04-03T12:31:32;100097.50;;;7.49;47.11
75594;BME280;64176;49.156;7.810;2023-04-03T12:44:31;100088.44;;;7.08;46.54
75594;BME280;64176;49.156;7.810;2023-04-03T12:47:31;100087.31;;;7.25;47.00
75594;BME280;64176;49.156;7.810;2023-04-03T12:53:19;100101.84;;;7.24;46.62
75594;BME280;64176;49.156;7.810;2023-04-03T12:56:25;100099.41;;;7.02;45.80
75594;BME280;64176;49.156;7.810;2023-04-03T12:59:16;100093.81;;;6.88;45.55
75594;BME280;64176;49.156;7.810;2023-04-03T13:02:02;100089.72;;;7.20;47.31
75594;BME280;64176;49.156;7.810;2023-04-03T13:04:50;100084.88;;;7.03;45.74
75594;BME280;64176;49.156;7.810;2023-04-03T13:07:36;100087.16;;;7.20;46.04
75594;BME280;64176;49.156;7.810;2023-04-03T13:10:22;100058.75;;;7.16;46.68
75594;BME280;64176;49.156;7.810;2023-04-03T13:13:09;100084.16;;;7.34;47.27
75594;BME280;64176;49.156;7.810;2023-04-03T13:15:54;100061.78;;;7.04;46.65
75594;BME280;64176;49.156;7.810;2023-04-03T13:18:39;100063.72;;;6.84;46.26
75594;BME280;64176;49.156;7.810;2023-04-03T13:21:29;100083.63;;;6.91;46.11
75594;BME280;64176;49.156;7.810;2023-04-03T13:24:15;100062.56;;;7.02;46.13
75594;BME280;64176;49.156;7.810;2023-04-03T13:26:59;100074.28;;;7.20;45.82
75594;BME280;64176;49.156;7.810;2023-04-03T13:29:50;100076.53;;;7.37;45.05
75594;BME280;64176;49.156;7.810;2023-04-03T13:32:35;100068.78;;;7.63;45.25
75594;BME280;64176;49.156;7.810;2023-04-03T13:35:32;100072.84;;;7.84;45.15
75594;BME280;64176;49.156;7.810;2023-04-03T13:41:05;100068.41;;;7.51;45.74
75594;BME280;64176;49.156;7.810;2023-04-03T13:43:52;100067.06;;;7.36;45.60
75594;BME280;64176;49.156;7.810;2023-04-03T13:46:38;100069.53;;;7.59;46.29
75594;BME280;64176;49.156;7.810;2023-04-03T13:52:59;100067.19;;;7.40;46.25
75594;BME280;64176;49.156;7.810;2023-04-03T13:56:13;100082.13;;;7.52;46.31
75594;BME280;64176;49.156;7.810;2023-04-03T13:59:20;100063.41;;;7.29;46.34
75594;BME280;64176;49.156;7.810;2023-04-03T14:02:16;100061.94;;;7.64;46.36
75594;BME280;64176;49.156;7.810;2023-04-03T14:05:02;100058.81;;;7.46;45.44
75594;BME280;64176;49.156;7.810;2023-04-03T14:07:49;100065.44;;;7.66;45.64
75594;BME280;64176;49.156;7.810;2023-04-03T14:10:34;100063.06;;;7.72;46.01
75594;BME280;64176;49.156;7.810;2023-04-03T14:13:21;100061.00;;;7.34;44.99
75594;BME280;64176;49.156;7.810;2023-04-03T14:16:05;100061.28;;;7.43;46.13
75594;BME280;64176;49.156;7.810;2023-04-03T14:18:51;100063.41;;;7.56;46.36
75594;BME280;64176;49.156;7.810;2023-04-03T14:21:38;100068.53;;;7.27;45.81
75594;BME280;64176;49.156;7.810;2023-04-03T14:24:27;100066.66;;;6.97;45.36
75594;BME280;64176;49.156;7.810;2023-04-03T14:27:35;100064.06;;;6.95;47.12
75594;BME280;64176;49.156;7.810;2023-04-03T14:30:26;100057.88;;;7.15;45.94
75594;BME280;64176;49.156;7.810;2023-04-03T14:33:17;100048.38;;;7.41;45.61
75594;BME280;64176;49.156;7.810;2023-04-03T14:36:05;100044.84;;;7.66;45.26
75594;BME280;64176;49.156;7.810;2023-04-03T14:38:55;100040.53;;;7.65;44.40
75594;BME280;64176;49.156;7.810;2023-04-03T14:41:39;100039.75;;;7.67;44.51
75594;BME280;64176;49.156;7.810;2023-04-03T14:44:26;100024.63;;;7.78;44.98
75594;BME280;64176;49.156;7.810;2023-04-03T14:47:19;100044.13;;;7.70;43.97
75594;BME280;64176;49.156;7.810;2023-04-03T14:50:07;100031.88;;;7.61;44.41
75594;BME280;64176;49.156;7.810;2023-04-03T14:52:55;100045.69;;;7.65;44.57
75594;BME280;64176;49.156;7.810;2023-04-03T14:55:39;100046.28;;;7.56;44.07
75594;BME280;64176;49.156;7.810;2023-04-03T14:58:27;100033.81;;;7.42;42.82
75594;BME280;64176;49.156;7.810;2023-04-03T15:01:17;100033.69;;;7.37;42.80
75594;BME280;64176;49.156;7.810;2023-04-03T15:04:01;100029.50;;;7.41;43.21
75594;BME280;64176;49.156;7.810;2023-04-03T15:06:49;100027.91;;;7.44;43.01
75594;BME280;64176;49.156;7.810;2023-04-03T15:09:36;100033.56;;;7.61;44.12
75594;BME280;64176;49.156;7.810;2023-04-03T15:12:25;100007.88;;;7.34;43.11
75594;BME280;64176;49.156;7.810;2023-04-03T15:15:09;100026.47;;;7.54;43.44
75594;BME280;64176;49.156;7.810;2023-04-03T15:17:55;100019.69;;;7.56;42.91
75594;BME280;64176;49.156;7.810;2023-04-03T15:20:44;100014.69;;;7.60;42.00
75594;BME280;64176;49.156;7.810;2023-04-03T15:23:28;100016.75;;;7.74;42.64
75594;BME280;64176;49.156;7.810;2023-04-03T15:26:16;100023.66;;;7.75;41.83
75594;BME280;64176;49.156;7.810;2023-04-03T15:29:00;100019.34;;;8.03;42.36
75594;BME280;64176;49.156;7.810;2023-04-03T15:31:44;100017.31;;;7.92;42.21
75594;BME280;64176;49.156;7.810;2023-04-03T15:34:29;100016.59;;;7.67;42.74
75594;BME280;64176;49.156;7.810;2023-04-03T15:37:16;100030.59;;;7.77;42.74
75594;BME280;64176;49.156;7.810;2023-04-03T15:40:06;100031.72;;;7.57;42.88
75594;BME280;64176;49.156;7.810;2023-04-03T15:42:51;100031.88;;;7.63;43.94
75594;BME280;64176;49.156;7.810;2023-04-03T15:45:36;100037.53;;;7.50;44.76
75594;BME280;64176;49.156;7.810;2023-04-03T15:48:20;100016.44;;;7.33;43.46
75594;BME280;64176;49.156;7.810;2023-04-03T15:51:07;100028.88;;;7.48;44.60
75594;BME280;64176;49.156;7.810;2023-04-03T15:53:51;100026.09;;;7.42;44.74
75594;BME280;64176;49.156;7.810;2023-04-03T15:56:35;100036.59;;;7.21;44.45
75594;BME280;64176;49.156;7.810;2023-04-03T15:59:19;100030.03;;;6.77;44.35
75594;BME280;64176;49.156;7.810;2023-04-03T16:02:07;100031.97;;;6.82;44.80
75594;BME280;64176;49.156;7.810;2023-04-03T16:04:54;100031.03;;;6.80;45.93
75594;BME280;64176;49.156;7.810;2023-04-03T16:07:39;100030.69;;;6.97;45.81
75594;BME280;64176;49.156;7.810;2023-04-03T16:10:23;100036.03;;;7.03;43.60
75594;BME280;64176;49.156;7.810;2023-04-03T16:13:07;100026.63;;;7.03;43.84
75594;BME280;64176;49.156;7.810;2023-04-03T16:15:54;100024.78;;;6.99;43.54